KBBD/BBD METAR and TAF weather

Enter ICAO airport designator
Station Type Date Time Source
KBBD METAR 2021/04/17 02:55 UTC NOAA

KBBD 170255Z AUTO 36012KT 10SM OVC026 12/10 A2999 RMK AO2


Station Type Date Time Source
KBBD Decoded METAR 2021/04/17 02:55 UTC NOAA

Brady, Curtis Field Airport, TX, United States (KBBD) 31-10-45N 099-19-26W
Apr 16, 2021 - 10:55 PM EDT / 2021.04.17 0255 UTC
Wind: from the N (360 degrees) at 14 MPH (12 KT):0
Visibility: 10 mile(s):0
Sky conditions: overcast
Temperature: 53 F (12 C)
Dew Point: 50 F (10 C)
Relative Humidity: 87%
Pressure (altimeter): 29.99 in. Hg (1015 hPa)
ob: KBBD 170255Z AUTO 36012KT 10SM OVC026 12/10 A2999 RMK AO2
cycle: 3

Station Type Date Time Source
KBBD TAF 2021/04/16 18:45 UTC NOAA

TAF KBBD 161742Z 1618/1718 36010KT P6SM OVC004
FM162100 36017G24KT P6SM OVC015
FM171200 35013KT P6SM OVC015

Example: see airport list